createdAt,value
2022-08-01T00:00:30.296Z,99793.53
2022-08-01T00:05:33.565Z,99785.28
2022-08-01T00:10:36.330Z,99788.94
2022-08-01T00:15:40.782Z,99773.06
2022-08-01T00:20:47.034Z,99780.50
2022-08-01T00:25:49.666Z,99773.53
2022-08-01T00:30:52.334Z,99760.91
2022-08-01T00:35:54.953Z,99778.69
2022-08-01T00:41:06.838Z,99787.53
2022-08-01T00:46:09.513Z,99782.13
2022-08-01T00:51:12.837Z,99774.88
2022-08-01T00:56:15.793Z,99783.97
2022-08-01T01:01:19.425Z,99778.13
2022-08-01T01:06:50.645Z,99765.72
2022-08-01T01:12:41.957Z,99770.41
2022-08-01T01:17:54.283Z,99770.34
2022-08-01T01:22:56.959Z,99770.00
2022-08-01T01:28:11.346Z,99770.84
2022-08-01T01:33:15.481Z,99773.34
2022-08-01T01:38:43.127Z,99768.66
2022-08-01T01:43:47.861Z,99757.31
2022-08-01T01:48:53.020Z,99763.16
2022-08-01T01:53:57.342Z,99763.88
2022-08-01T01:59:03.081Z,99766.59
2022-08-01T02:04:06.051Z,99768.94
2022-08-01T02:09:10.401Z,99721.88
2022-08-01T02:14:15.418Z,99732.94
2022-08-01T02:19:20.605Z,99735.50
2022-08-01T02:24:37.889Z,99729.66
2022-08-01T02:29:54.146Z,99715.63
2022-08-01T02:34:58.366Z,99709.50
2022-08-01T02:40:01.825Z,99705.69
2022-08-01T02:45:06.643Z,99708.06
2022-08-01T02:50:13.605Z,99697.00
2022-08-01T02:55:18.105Z,99685.75
2022-08-01T03:00:24.876Z,99688.81
2022-08-01T03:05:28.550Z,99672.53
2022-08-01T03:10:34.704Z,99706.16
2022-08-01T03:15:40.796Z,99722.13
2022-08-01T03:20:44.909Z,99712.00
2022-08-01T03:25:50.983Z,99723.84
2022-08-01T03:30:54.806Z,99718.41
2022-08-01T03:36:01.017Z,99726.38
2022-08-01T03:41:10.954Z,99716.81
2022-08-01T03:46:20.137Z,99711.94
2022-08-01T03:51:24.443Z,99703.75
2022-08-01T03:56:28.857Z,99716.03
2022-08-01T04:01:33.746Z,99713.81
2022-08-01T04:06:39.790Z,99704.28
2022-08-01T04:11:42.946Z,99710.00
2022-08-01T04:16:45.760Z,99690.88
2022-08-01T04:21:49.412Z,99710.81
2022-08-01T04:26:53.749Z,99694.28
2022-08-01T04:31:59.064Z,99723.41
2022-08-01T04:37:03.043Z,99725.25
2022-08-01T04:42:06.686Z,99722.50
2022-08-01T04:47:11.062Z,99722.41
2022-08-01T04:52:18.033Z,99725.72
2022-08-01T04:57:22.492Z,99727.69
2022-08-01T05:02:25.242Z,99710.81
2022-08-01T05:07:28.064Z,99721.38
2022-08-01T05:12:30.757Z,99726.72
2022-08-01T05:17:37.024Z,99732.94
2022-08-01T05:22:40.305Z,99729.91
2022-08-01T05:27:42.971Z,99716.13
2022-08-01T05:32:46.819Z,99726.41
2022-08-01T05:37:49.481Z,99724.72
2022-08-01T05:42:52.128Z,99717.00
2022-08-01T05:47:55.292Z,99720.78
2022-08-01T05:52:57.928Z,99716.34
2022-08-01T05:58:00.580Z,99719.22
2022-08-01T06:03:03.406Z,99704.81
2022-08-01T06:08:06.153Z,99715.50
2022-08-01T06:13:08.770Z,99710.53
2022-08-01T06:18:12.621Z,99711.72
2022-08-01T06:23:32.139Z,99713.56
2022-08-01T06:28:35.538Z,99701.75
2022-08-01T06:33:38.189Z,99707.16
2022-08-01T06:38:40.948Z,99717.28
2022-08-01T06:43:43.596Z,99703.94
2022-08-01T06:48:46.213Z,99716.28
2022-08-01T06:53:49.173Z,99713.91
2022-08-01T06:58:52.049Z,99722.72
2022-08-01T07:03:55.597Z,99716.66
2022-08-01T07:09:01.454Z,99717.81
2022-08-01T07:14:09.474Z,99710.91
2022-08-01T07:19:13.687Z,99721.44
2022-08-01T07:24:16.543Z,99685.66
2022-08-01T07:29:26.099Z,99723.06
2022-08-01T07:34:28.799Z,99717.47
2022-08-01T07:39:31.632Z,99701.28
2022-08-01T07:44:34.333Z,99712.75
2022-08-01T07:49:40.415Z,99698.38
2022-08-01T07:54:43.495Z,99722.41
2022-08-01T07:59:46.333Z,99721.84
2022-08-01T08:04:49.465Z,99713.75
2022-08-01T08:09:52.344Z,99698.25
2022-08-01T08:14:55.036Z,99713.69
2022-08-01T08:20:03.488Z,99702.28
2022-08-01T08:25:07.775Z,99713.69
2022-08-01T08:30:12.222Z,99704.50
2022-08-01T08:35:18.440Z,99710.91
2022-08-01T08:40:30.784Z,99686.97
2022-08-01T08:45:58.176Z,99694.47
2022-08-01T08:50:59.645Z,99690.16
2022-08-01T08:56:03.796Z,99693.69
2022-08-01T09:01:07.938Z,99666.00
2022-08-01T09:06:11.313Z,99686.50
2022-08-01T09:11:22.630Z,99691.06
2022-08-01T09:16:26.409Z,99678.66
2022-08-01T09:21:29.840Z,99676.78
2022-08-01T09:26:37.501Z,99679.31
2022-08-01T09:31:47.436Z,99675.03
2022-08-01T09:36:54.575Z,99680.47
2022-08-01T09:41:59.261Z,99681.09
2022-08-01T09:47:07.803Z,99682.78
2022-08-01T09:52:15.354Z,99666.81
2022-08-01T09:57:20.519Z,99662.66
2022-08-01T10:02:37.908Z,99657.84
2022-08-01T10:07:58.268Z,99651.63
2022-08-01T10:13:02.363Z,99645.63
2022-08-01T10:18:16.194Z,99645.41
2022-08-01T10:23:40.496Z,99639.78
2022-08-01T10:28:46.125Z,99661.69
2022-08-01T10:33:53.120Z,99638.38
2022-08-01T10:38:57.204Z,99665.44
2022-08-01T10:44:01.955Z,99642.00
2022-08-01T10:49:15.641Z,99665.66
2022-08-01T10:54:18.377Z,99652.16
2022-08-01T10:59:49.344Z,99657.81
2022-08-01T11:04:57.344Z,99651.38
2022-08-01T11:10:17.800Z,99650.22
2022-08-01T11:15:29.710Z,99638.84
2022-08-01T11:20:41.659Z,99630.91
2022-08-01T11:26:05.760Z,99615.50
2022-08-01T11:31:14.551Z,99617.00
2022-08-01T11:36:17.892Z,99611.50
2022-08-01T11:41:38.460Z,99611.78
2022-08-01T11:47:14.802Z,99613.59
2022-08-01T11:52:26.796Z,99599.53
2022-08-01T11:57:34.327Z,99605.50
2022-08-01T12:02:38.637Z,99597.22
2022-08-01T12:07:42.853Z,99599.09
2022-08-01T12:12:47.547Z,99569.59
2022-08-01T12:17:59.886Z,99606.66
2022-08-01T12:23:09.114Z,99608.50
2022-08-01T12:28:16.345Z,99595.34
2022-08-01T12:33:20.937Z,99598.94
2022-08-01T12:38:25.935Z,99600.25
2022-08-01T12:43:33.021Z,99601.13
2022-08-01T12:48:35.759Z,99597.94
2022-08-01T12:53:40.644Z,99583.03
2022-08-01T12:58:44.504Z,99582.13
2022-08-01T13:04:07.300Z,99551.22
2022-08-01T13:09:15.144Z,99573.81
2022-08-01T13:14:30.776Z,99564.91
2022-08-01T13:19:48.215Z,99554.09
2022-08-01T13:24:50.857Z,99555.72
2022-08-01T13:29:54.484Z,99554.34
2022-08-01T13:35:09.962Z,99541.81
2022-08-01T13:40:12.978Z,99534.81
2022-08-01T13:45:16.890Z,99544.06
2022-08-01T13:50:26.001Z,99557.00
2022-08-01T13:55:34.072Z,99561.50
2022-08-01T14:00:37.906Z,99565.16
2022-08-01T14:05:40.759Z,99569.63
2022-08-01T14:10:43.467Z,99556.47
2022-08-01T14:15:46.477Z,99548.41
2022-08-01T14:20:49.197Z,99566.59
2022-08-01T14:26:00.374Z,99556.28
2022-08-01T14:31:09.682Z,99575.75
2022-08-01T14:36:29.507Z,99571.09
2022-08-01T14:41:33.726Z,99574.19
2022-08-01T14:46:36.425Z,99564.53
2022-08-01T14:51:39.596Z,99566.97
2022-08-01T14:56:42.217Z,99561.44
2022-08-01T15:01:44.914Z,99552.97
2022-08-01T15:06:47.722Z,99544.84
2022-08-01T15:11:50.449Z,99562.44
2022-08-01T15:16:53.409Z,99557.63
2022-08-01T15:21:56.109Z,99555.06
2022-08-01T15:26:59.189Z,99563.03
2022-08-01T15:32:02.788Z,99553.16
2022-08-01T15:37:06.508Z,99538.56
2022-08-01T15:42:13.965Z,99538.19
2022-08-01T15:47:24.833Z,99532.88
2022-08-01T15:52:31.502Z,99542.78
2022-08-01T15:57:34.653Z,99539.78
2022-08-01T16:02:37.219Z,99538.22
2022-08-01T16:07:59.834Z,99541.59
2022-08-01T16:13:07.229Z,99551.84
2022-08-01T16:18:16.104Z,99545.56
2022-08-01T16:23:19.031Z,99547.00
2022-08-01T16:28:22.139Z,99556.06
2022-08-01T16:33:49.589Z,99549.59
2022-08-01T16:38:47.660Z,99538.59
2022-08-01T16:43:53.437Z,99555.50
2022-08-01T16:48:57.690Z,99552.78
2022-08-01T16:54:01.008Z,99536.31
2022-08-01T16:59:03.764Z,99562.81
2022-08-01T17:04:06.740Z,99562.88
2022-08-01T17:09:09.774Z,99565.41
2022-08-01T17:14:12.591Z,99574.47
2022-08-01T17:19:15.251Z,99577.97
2022-08-01T17:24:18.801Z,99558.44
2022-08-01T17:29:21.651Z,99577.91
2022-08-01T17:34:24.336Z,99571.13
2022-08-01T17:39:38.996Z,99579.25
2022-08-01T17:44:42.349Z,99586.47
2022-08-01T17:49:55.053Z,99584.59
2022-08-01T17:54:58.915Z,99574.22
2022-08-01T18:00:01.775Z,99592.13
2022-08-01T18:05:10.845Z,99581.88
2022-08-01T18:10:13.737Z,99576.66
2022-08-01T18:15:23.337Z,99592.41
2022-08-01T18:20:30.189Z,99604.88
2022-08-01T18:25:34.089Z,99609.19
2022-08-01T18:30:36.908Z,99599.47
2022-08-01T18:35:52.299Z,99610.31
2022-08-01T18:40:56.782Z,99610.09
2022-08-01T18:46:01.295Z,99607.91
2022-08-01T18:51:04.761Z,99619.06
2022-08-01T18:56:14.362Z,99617.84
2022-08-01T19:01:17.357Z,99612.72
2022-08-01T19:06:20.231Z,99617.91
2022-08-01T19:11:22.993Z,99619.94
2022-08-01T19:16:26.455Z,99623.00
2022-08-01T19:21:29.200Z,99627.63
2022-08-01T19:26:34.376Z,99625.38
2022-08-01T19:31:40.511Z,99629.69
2022-08-01T19:36:47.651Z,99627.91
2022-08-01T19:41:51.668Z,99633.41
2022-08-01T19:46:54.724Z,99634.88
2022-08-01T19:52:03.019Z,99629.13
2022-08-01T19:57:08.295Z,99621.69
2022-08-01T20:02:17.111Z,99614.69
2022-08-01T20:07:19.848Z,99617.59
2022-08-01T20:12:23.504Z,99619.75
2022-08-01T20:17:26.253Z,99631.28
2022-08-01T20:22:32.748Z,99627.19
2022-08-01T20:27:37.712Z,99624.25
2022-08-01T20:32:41.418Z,99618.50
2022-08-01T20:38:06.127Z,99646.50
2022-08-01T20:43:11.864Z,99642.03
2022-08-01T20:48:17.397Z,99649.72
2022-08-01T20:53:22.193Z,99650.66
2022-08-01T20:58:58.035Z,99654.94
2022-08-01T21:04:38.269Z,99657.69
2022-08-01T21:09:42.598Z,99652.16
2022-08-01T21:15:15.345Z,99653.25
2022-08-01T21:20:19.884Z,99651.22
2022-08-01T21:25:27.769Z,99660.31
2022-08-01T21:30:31.820Z,99643.47
2022-08-01T21:35:35.136Z,99663.47
2022-08-01T21:40:38.065Z,99652.34
2022-08-01T21:45:57.513Z,99642.25
2022-08-01T21:51:10.952Z,99645.84
2022-08-01T21:56:47.149Z,99640.06
2022-08-01T22:02:18.071Z,99646.47
2022-08-01T22:07:22.836Z,99650.72
2022-08-01T22:12:26.044Z,99649.88
2022-08-01T22:17:29.487Z,99650.19
2022-08-01T22:22:51.893Z,99655.03
2022-08-01T22:28:05.947Z,99656.84
2022-08-01T22:33:16.283Z,99652.16
2022-08-01T22:38:22.692Z,99650.13
2022-08-01T22:43:38.292Z,99648.75
2022-08-01T22:48:52.409Z,99658.84
2022-08-01T22:54:07.066Z,99658.34
2022-08-01T22:59:20.356Z,99625.47
2022-08-01T23:04:39.997Z,99630.13
2022-08-01T23:09:54.296Z,99627.50
2022-08-01T23:14:59.837Z,99627.59
2022-08-01T23:20:06.316Z,99607.56
2022-08-01T23:25:11.778Z,99627.31
2022-08-01T23:30:14.592Z,99623.91
2022-08-01T23:35:17.200Z,99621.69
2022-08-01T23:40:20.132Z,99626.28
2022-08-01T23:45:23.824Z,99633.63
2022-08-01T23:50:27.105Z,99637.16
2022-08-01T23:55:37.629Z,99638.22
